PWSweather.com
Personal Weather Stations
Station Observations
ISTOCKPO4
Cheadle HulmeGB SK8 6NZ

Cheadle HulmeGB SK8 6NZ

Lat: 53.363783, Lon: -2.1948438

Elevation: 261

Station Type: Davis VP2 with Daytime FARS

http://www.cheadlehulmeweather.co.uk

Latest ConditionsUpdated 4:45:03 PM GMT Sunday, Jan 26, 2020
Currently Today's Max Today's Min Today's Average
Temperature 44.4°F6.9°C 47.7°F8.7°C 44.4°F6.9°C 45.7°F7.6°C
Dew Point 42.5°F5.8°C 45.6°F7.6°C 41.7°F5.4°C 43.5°F6.4°C
Winds 2.0 mph S3.2 kmh S 14.0 mph -22.5 kmh - - 8.5 mph 13.7 kmh
Wind Gusts 3.0 mph4.8 kmh 25.0 mph40.2 kmh - -
Humidity 93% 94% 88% 92%
Pressure 29.61 in1002.7 mb 29.84 in1010.5 mb 29.61 in1002.7 mb -
Precipitation - 0.11 in2.8 mm - -
Hour Temp Dew Point Humidity Winds Wind Gusts Pressure Precip Precip Rate Daily Precip Total
04:45 PM 44.4°F6.9°C 42.5°F5.8°C 93% 2.0 mph S3.2 kmh S 3.0 mph4.8 kmh 29.61 in1002.7 mb 0.00 in0.0 mm 0.00 in0.0 mm 0.11 in2.8 mm
04:30 PM 45.0°F7.2°C 43.1°F6.2°C 93% 2.0 mph S3.2 kmh S 3.0 mph4.8 kmh 29.61 in1002.7 mb 0.01 in0.3 mm 0.00 in0.0 mm 0.11 in2.8 mm
04:15 PM 45.0°F7.2°C 43.3°F6.3°C 94% 2.0 mph S3.2 kmh S 4.0 mph6.4 kmh 29.61 in1002.7 mb 0.01 in0.3 mm 0.00 in0.0 mm 0.11 in2.8 mm
04:00 PM 45.1°F7.3°C 43.2°F6.2°C 93% 2.0 mph S3.2 kmh S 4.0 mph6.4 kmh 29.62 in1003.0 mb 0.01 in0.3 mm 0.00 in0.0 mm 0.11 in2.8 mm
03:45 PM 45.3°F7.4°C 43.7°F6.5°C 94% 2.0 mph SSW3.2 kmh SSW 4.0 mph6.4 kmh 29.61 in1002.7 mb 0.01 in0.3 mm 0.00 in0.0 mm 0.11 in2.8 mm
03:30 PM 45.3°F7.4°C 43.4°F6.3°C 93% 2.0 mph S3.2 kmh S 6.0 mph9.7 kmh 29.62 in1003.0 mb 0.02 in0.5 mm 0.00 in0.0 mm 0.10 in2.5 mm
03:15 PM 45.5°F7.5°C 43.6°F6.4°C 93% 2.0 mph SSW3.2 kmh SSW 6.0 mph9.7 kmh 29.61 in1002.7 mb 0.04 in1.0 mm 0.00 in0.0 mm 0.10 in2.5 mm
03:00 PM 45.9°F7.7°C 44.0°F6.7°C 93% 3.0 mph SSW4.8 kmh SSW 7.0 mph11.3 kmh 29.61 in1002.7 mb 0.07 in1.8 mm 0.00 in0.0 mm 0.10 in2.5 mm
02:45 PM 46.2°F7.9°C 44.3°F6.8°C 93% 4.0 mph SW6.4 kmh SW 8.0 mph12.9 kmh 29.62 in1003.0 mb 0.07 in1.8 mm 0.08 in2.0 mm 0.10 in2.5 mm
02:30 PM 46.6°F8.1°C 44.7°F7.1°C 93% 4.0 mph SW6.4 kmh SW 10.0 mph16.1 kmh 29.62 in1003.0 mb 0.05 in1.3 mm 0.04 in1.0 mm 0.08 in2.0 mm
02:15 PM 47.1°F8.4°C 45.2°F7.3°C 93% 5.0 mph WSW8.0 kmh WSW 10.0 mph16.1 kmh 29.61 in1002.7 mb 0.04 in1.0 mm 0.12 in3.0 mm 0.06 in1.5 mm
02:00 PM 47.5°F8.6°C 45.6°F7.6°C 93% 9.0 mph S14.5 kmh S 15.0 mph24.1 kmh 29.61 in1002.7 mb 0.01 in0.3 mm 0.00 in0.0 mm 0.03 in0.8 mm
01:45 PM 47.7°F8.7°C 45.5°F7.5°C 92% 8.0 mph S12.9 kmh S 16.0 mph25.7 kmh 29.61 in1002.7 mb 0.01 in0.3 mm 0.04 in1.0 mm 0.03 in0.8 mm
01:30 PM 47.7°F8.7°C 45.5°F7.5°C 92% 12.0 mph S19.3 kmh S 21.0 mph33.8 kmh 29.61 in1002.7 mb 0.00 in0.0 mm 0.00 in0.0 mm 0.02 in0.5 mm
01:15 PM 47.7°F8.7°C 45.5°F7.5°C 92% 12.0 mph S19.3 kmh S 22.0 mph35.4 kmh 29.61 in1002.7 mb 0.00 in0.0 mm 0.00 in0.0 mm 0.02 in0.5 mm
01:00 PM 47.5°F8.6°C 45.3°F7.4°C 92% 12.0 mph S19.3 kmh S 21.0 mph33.8 kmh 29.61 in1002.7 mb 0.00 in0.0 mm 0.00 in0.0 mm 0.02 in0.5 mm
12:45 PM 47.5°F8.6°C 45.0°F7.2°C 91% 14.0 mph S22.5 kmh S 24.0 mph38.6 kmh 29.62 in1003.0 mb 0.00 in0.0 mm 0.00 in0.0 mm 0.02 in0.5 mm
12:30 PM 47.1°F8.4°C 44.6°F7.0°C 91% 14.0 mph S22.5 kmh S 25.0 mph40.2 kmh 29.62 in1003.0 mb 0.00 in0.0 mm 0.00 in0.0 mm 0.02 in0.5 mm
12:15 PM 46.9°F8.3°C 44.7°F7.1°C 92% 13.0 mph S20.9 kmh S 22.0 mph35.4 kmh 29.62 in1003.0 mb 0.00 in0.0 mm 0.00 in0.0 mm 0.02 in0.5 mm
12:00 PM 46.6°F8.1°C 44.4°F6.9°C 92% 13.0 mph S20.9 kmh S 23.0 mph37.0 kmh 29.62 in1003.0 mb 0.00 in0.0 mm 0.00 in0.0 mm 0.02 in0.5 mm
11:45 AM 46.2°F7.9°C 44.0°F6.7°C 92% 12.0 mph S19.3 kmh S 22.0 mph35.4 kmh 29.63 in1003.4 mb 0.00 in0.0 mm 0.00 in0.0 mm 0.02 in0.5 mm
11:30 AM 46.0°F7.8°C 43.8°F6.6°C 92% 12.0 mph S19.3 kmh S 21.0 mph33.8 kmh 29.64 in1003.7 mb 0.02 in0.5 mm 0.00 in0.0 mm 0.02 in0.5 mm
11:15 AM 46.0°F7.8°C 43.8°F6.6°C 92% 13.0 mph S20.9 kmh S 21.0 mph33.8 kmh 29.64 in1003.7 mb 0.02 in0.5 mm 0.00 in0.0 mm 0.02 in0.5 mm
11:00 AM 45.9°F7.7°C 43.7°F6.5°C 92% 14.0 mph S22.5 kmh S 25.0 mph40.2 kmh 29.64 in1003.7 mb 0.02 in0.5 mm 0.01 in0.3 mm 0.02 in0.5 mm
10:45 AM 46.0°F7.8°C 43.6°F6.4°C 91% 13.0 mph S20.9 kmh S 21.0 mph33.8 kmh 29.64 in1003.7 mb 0.01 in0.3 mm 0.04 in1.0 mm 0.01 in0.3 mm
10:30 AM 46.2°F7.9°C 43.4°F6.3°C 90% 12.0 mph SSE19.3 kmh SSE 20.0 mph32.2 kmh 29.65 in1004.1 mb 0.00 in0.0 mm 0.00 in0.0 mm 0.00 in0.0 mm
10:15 AM 46.0°F7.8°C 43.3°F6.3°C 90% 14.0 mph S22.5 kmh S 22.0 mph35.4 kmh 29.65 in1004.1 mb 0.00 in0.0 mm 0.00 in0.0 mm 0.00 in0.0 mm
10:00 AM 46.2°F7.9°C 43.2°F6.2°C 89% 12.0 mph S19.3 kmh S 20.0 mph32.2 kmh 29.66 in1004.4 mb 0.00 in0.0 mm 0.00 in0.0 mm 0.00 in0.0 mm
09:45 AM 46.0°F7.8°C 42.7°F5.9°C 88% 12.0 mph SSE19.3 kmh SSE 20.0 mph32.2 kmh 29.66 in1004.4 mb 0.00 in0.0 mm 0.00 in0.0 mm 0.00 in0.0 mm
09:30 AM 46.0°F7.8°C 42.7°F5.9°C 88% 11.0 mph S17.7 kmh S 20.0 mph32.2 kmh 29.67 in1004.7 mb 0.00 in0.0 mm 0.00 in0.0 mm 0.00 in0.0 mm
09:15 AM 45.5°F7.5°C 42.4°F5.8°C 89% 12.0 mph S19.3 kmh S 22.0 mph35.4 kmh 29.68 in1005.1 mb 0.00 in0.0 mm 0.00 in0.0 mm 0.00 in0.0 mm
09:00 AM 45.0°F7.2°C 42.2°F5.7°C 90% 10.0 mph SSE16.1 kmh SSE 20.0 mph32.2 kmh 29.68 in1005.1 mb 0.00 in0.0 mm 0.00 in0.0 mm 0.00 in0.0 mm
08:45 AM 44.8°F7.1°C 41.7°F5.4°C 89% 10.0 mph SSE16.1 kmh SSE 19.0 mph30.6 kmh 29.68 in1005.1 mb 0.00 in0.0 mm 0.00 in0.0 mm 0.00 in0.0 mm
08:30 AM 44.6°F7.0°C 41.8°F5.4°C 90% 11.0 mph SSE17.7 kmh SSE 20.0 mph32.2 kmh 29.69 in1005.4 mb 0.00 in0.0 mm 0.00 in0.0 mm 0.00 in0.0 mm
08:15 AM 44.4°F6.9°C 41.7°F5.4°C 90% 11.0 mph S17.7 kmh S 18.0 mph29.0 kmh 29.69 in1005.4 mb 0.00 in0.0 mm 0.00 in0.0 mm 0.00 in0.0 mm
08:00 AM 44.4°F6.9°C 41.7°F5.4°C 90% 9.0 mph SSE14.5 kmh SSE 15.0 mph24.1 kmh 29.70 in1005.8 mb 0.00 in0.0 mm 0.00 in0.0 mm 0.00 in0.0 mm
07:45 AM 44.6°F7.0°C 41.8°F5.4°C 90% 11.0 mph S17.7 kmh S 17.0 mph27.4 kmh 29.70 in1005.8 mb 0.00 in0.0 mm 0.00 in0.0 mm 0.00 in0.0 mm
07:30 AM 44.8°F7.1°C 42.0°F5.6°C 90% 10.0 mph SSE16.1 kmh SSE 19.0 mph30.6 kmh 29.70 in1005.8 mb 0.00 in0.0 mm 0.00 in0.0 mm 0.00 in0.0 mm
07:15 AM 45.1°F7.3°C 42.1°F5.6°C 89% 9.0 mph S14.5 kmh S 16.0 mph25.7 kmh 29.70 in1005.8 mb 0.00 in0.0 mm 0.00 in0.0 mm 0.00 in0.0 mm
07:00 AM 45.5°F7.5°C 42.4°F5.8°C 89% 7.0 mph S11.3 kmh S 13.0 mph20.9 kmh 29.71 in1006.1 mb 0.00 in0.0 mm 0.00 in0.0 mm 0.00 in0.0 mm
06:45 AM 46.0°F7.8°C 42.7°F5.9°C 88% 10.0 mph S16.1 kmh S 17.0 mph27.4 kmh 29.71 in1006.1 mb 0.00 in0.0 mm 0.00 in0.0 mm 0.00 in0.0 mm
06:30 AM 46.0°F7.8°C 43.3°F6.3°C 90% 9.0 mph S14.5 kmh S 16.0 mph25.7 kmh 29.71 in1006.1 mb 0.00 in0.0 mm 0.00 in0.0 mm 0.00 in0.0 mm
06:15 AM 45.9°F7.7°C 43.4°F6.3°C 91% 9.0 mph S14.5 kmh S 15.0 mph24.1 kmh 29.72 in1006.4 mb 0.00 in0.0 mm 0.00 in0.0 mm 0.00 in0.0 mm
06:00 AM 45.7°F7.6°C 43.5°F6.4°C 92% 8.0 mph S12.9 kmh S 16.0 mph25.7 kmh 29.72 in1006.4 mb 0.00 in0.0 mm 0.00 in0.0 mm 0.00 in0.0 mm
05:45 AM 45.5°F7.5°C 43.3°F6.3°C 92% 6.0 mph SSE9.7 kmh SSE 11.0 mph17.7 kmh 29.72 in1006.4 mb 0.00 in0.0 mm 0.00 in0.0 mm 0.00 in0.0 mm
05:30 AM 45.3°F7.4°C 43.1°F6.2°C 92% 7.0 mph S11.3 kmh S 17.0 mph27.4 kmh 29.73 in1006.8 mb 0.00 in0.0 mm 0.00 in0.0 mm 0.00 in0.0 mm
05:15 AM 45.3°F7.4°C 43.1°F6.2°C 92% 7.0 mph SSE11.3 kmh SSE 13.0 mph20.9 kmh 29.73 in1006.8 mb 0.00 in0.0 mm 0.00 in0.0 mm 0.00 in0.0 mm
05:00 AM 45.7°F7.6°C 43.5°F6.4°C 92% 8.0 mph S12.9 kmh S 14.0 mph22.5 kmh 29.74 in1007.1 mb 0.00 in0.0 mm 0.00 in0.0 mm 0.00 in0.0 mm
04:45 AM 45.7°F7.6°C 43.8°F6.6°C 93% 8.0 mph S12.9 kmh S 17.0 mph27.4 kmh 29.74 in1007.1 mb 0.00 in0.0 mm 0.00 in0.0 mm 0.00 in0.0 mm
04:30 AM 45.7°F7.6°C 43.8°F6.6°C 93% 5.0 mph S8.0 kmh S 12.0 mph19.3 kmh 29.74 in1007.1 mb 0.00 in0.0 mm 0.00 in0.0 mm 0.00 in0.0 mm
04:15 AM 45.7°F7.6°C 43.8°F6.6°C 93% 7.0 mph S11.3 kmh S 14.0 mph22.5 kmh 29.74 in1007.1 mb 0.00 in0.0 mm 0.00 in0.0 mm 0.00 in0.0 mm
04:00 AM 45.7°F7.6°C 43.8°F6.6°C 93% 8.0 mph SSE12.9 kmh SSE 13.0 mph20.9 kmh 29.74 in1007.1 mb 0.00 in0.0 mm 0.00 in0.0 mm 0.00 in0.0 mm
03:45 AM 45.7°F7.6°C 43.8°F6.6°C 93% 8.0 mph SSE12.9 kmh SSE 17.0 mph27.4 kmh 29.75 in1007.5 mb 0.00 in0.0 mm 0.00 in0.0 mm 0.00 in0.0 mm
03:30 AM 45.7°F7.6°C 43.8°F6.6°C 93% 8.0 mph SSE12.9 kmh SSE 15.0 mph24.1 kmh 29.76 in1007.8 mb 0.00 in0.0 mm 0.00 in0.0 mm 0.00 in0.0 mm
03:15 AM 45.7°F7.6°C 43.8°F6.6°C 93% 7.0 mph S11.3 kmh S 15.0 mph24.1 kmh 29.77 in1008.1 mb 0.00 in0.0 mm 0.00 in0.0 mm 0.00 in0.0 mm
03:00 AM 45.5°F7.5°C 43.6°F6.4°C 93% 8.0 mph S12.9 kmh S 15.0 mph24.1 kmh 29.77 in1008.1 mb 0.00 in0.0 mm 0.00 in0.0 mm 0.00 in0.0 mm
02:45 AM 45.3°F7.4°C 43.4°F6.3°C 93% 8.0 mph S12.9 kmh S 15.0 mph24.1 kmh 29.77 in1008.1 mb 0.00 in0.0 mm 0.00 in0.0 mm 0.00 in0.0 mm
02:30 AM 45.3°F7.4°C 43.4°F6.3°C 93% 8.0 mph SSE12.9 kmh SSE 15.0 mph24.1 kmh 29.78 in1008.5 mb 0.00 in0.0 mm 0.00 in0.0 mm 0.00 in0.0 mm
02:15 AM 45.3°F7.4°C 43.7°F6.5°C 94% 8.0 mph S12.9 kmh S 14.0 mph22.5 kmh 29.79 in1008.8 mb 0.00 in0.0 mm 0.00 in0.0 mm 0.00 in0.0 mm
02:00 AM 45.1°F7.3°C 43.5°F6.4°C 94% 8.0 mph S12.9 kmh S 14.0 mph22.5 kmh 29.79 in1008.8 mb 0.00 in0.0 mm 0.00 in0.0 mm 0.00 in0.0 mm
01:45 AM 45.1°F7.3°C 43.5°F6.4°C 94% 7.0 mph S11.3 kmh S 14.0 mph22.5 kmh 29.80 in1009.1 mb 0.00 in0.0 mm 0.00 in0.0 mm 0.00 in0.0 mm
01:30 AM 45.1°F7.3°C 43.2°F6.2°C 93% 7.0 mph SSE11.3 kmh SSE 16.0 mph25.7 kmh 29.80 in1009.1 mb 0.00 in0.0 mm 0.00 in0.0 mm 0.00 in0.0 mm
01:15 AM 45.1°F7.3°C 43.2°F6.2°C 93% 8.0 mph SSE12.9 kmh SSE 13.0 mph20.9 kmh 29.81 in1009.5 mb 0.00 in0.0 mm 0.00 in0.0 mm 0.00 in0.0 mm
01:00 AM 45.1°F7.3°C 43.2°F6.2°C 93% 8.0 mph SSE12.9 kmh SSE 15.0 mph24.1 kmh 29.82 in1009.8 mb 0.00 in0.0 mm 0.00 in0.0 mm 0.00 in0.0 mm
12:45 AM 45.1°F7.3°C 43.2°F6.2°C 93% 9.0 mph SSE14.5 kmh SSE 19.0 mph30.6 kmh 29.82 in1009.8 mb 0.00 in0.0 mm 0.00 in0.0 mm 0.00 in0.0 mm
12:30 AM 45.1°F7.3°C 43.2°F6.2°C 93% 7.0 mph SSE11.3 kmh SSE 13.0 mph20.9 kmh 29.83 in1010.2 mb 0.00 in0.0 mm 0.00 in0.0 mm 0.00 in0.0 mm
12:15 AM 45.1°F7.3°C 43.2°F6.2°C 93% 8.0 mph S12.9 kmh S 17.0 mph27.4 kmh 29.84 in1010.5 mb 0.00 in0.0 mm 0.00 in0.0 mm 0.00 in0.0 mm
12:00 AM 45.1°F7.3°C 43.2°F6.2°C 93% 7.0 mph SSE11.3 kmh SSE 14.0 mph22.5 kmh 29.84 in1010.5 mb 0.00 in0.0 mm 0.00 in0.0 mm 0.00 in0.0 mm